sensor_id;sensor_type;location;lat;lon;timestamp;pressure;altitude;pressure_sealevel;temperature;humidity
21824;BME280;11074;48.596;9.238;2023-04-09T00:02:16;98891.81;;;9.15;81.71
21824;BME280;11074;48.596;9.238;2023-04-09T00:04:42;98883.63;;;9.17;82.06
21824;BME280;11074;48.596;9.238;2023-04-09T00:07:07;98886.19;;;9.24;81.43
21824;BME280;11074;48.596;9.238;2023-04-09T00:09:33;98893.75;;;9.27;81.65
21824;BME280;11074;48.596;9.238;2023-04-09T00:11:59;98893.84;;;9.20;81.08
21824;BME280;11074;48.596;9.238;2023-04-09T00:14:24;98885.41;;;9.23;82.06
21824;BME280;11074;48.596;9.238;2023-04-09T00:16:50;98883.16;;;9.20;82.06
21824;BME280;11074;48.596;9.238;2023-04-09T00:19:16;98879.56;;;9.14;82.12
21824;BME280;11074;48.596;9.238;2023-04-09T00:21:41;98884.88;;;9.14;82.05
21824;BME280;11074;48.596;9.238;2023-04-09T00:24:07;98882.22;;;9.14;81.75
21824;BME280;11074;48.596;9.238;2023-04-09T00:26:33;98882.72;;;9.23;82.79
21824;BME280;11074;48.596;9.238;2023-04-09T00:28:59;98887.00;;;9.24;82.13
21824;BME280;11074;48.596;9.238;2023-04-09T00:31:25;98886.09;;;9.30;81.91
21824;BME280;11074;48.596;9.238;2023-04-09T00:33:50;98885.66;;;9.33;82.18
21824;BME280;11074;48.596;9.238;2023-04-09T00:36:17;98881.47;;;9.37;82.20
21824;BME280;11074;48.596;9.238;2023-04-09T00:38:43;98878.81;;;9.37;82.44
21824;BME280;11074;48.596;9.238;2023-04-09T00:41:08;98881.84;;;9.41;81.69
21824;BME280;11074;48.596;9.238;2023-04-09T00:43:34;98882.63;;;9.30;81.82
21824;BME280;11074;48.596;9.238;2023-04-09T00:46:00;98887.75;;;9.31;82.28
21824;BME280;11074;48.596;9.238;2023-04-09T00:48:26;98880.19;;;9.28;82.02
21824;BME280;11074;48.596;9.238;2023-04-09T00:50:53;98877.66;;;9.33;82.10
21824;BME280;11074;48.596;9.238;2023-04-09T00:53:19;98884.59;;;9.34;82.17
21824;BME280;11074;48.596;9.238;2023-04-09T00:55:45;98878.81;;;9.37;82.38
21824;BME280;11074;48.596;9.238;2023-04-09T00:58:11;98879.44;;;9.39;82.66
21824;BME280;11074;48.596;9.238;2023-04-09T01:00:37;98877.88;;;9.32;82.11
21824;BME280;11074;48.596;9.238;2023-04-09T01:03:05;98877.88;;;9.32;82.20
21824;BME280;11074;48.596;9.238;2023-04-09T01:05:59;98879.75;;;9.31;82.55
21824;BME280;11074;48.596;9.238;2023-04-09T01:08:48;98870.66;;;9.21;83.12
21824;BME280;11074;48.596;9.238;2023-04-09T01:11:37;98864.84;;;9.24;82.86
21824;BME280;11074;48.596;9.238;2023-04-09T01:14:32;98869.25;;;9.18;82.81
21824;BME280;11074;48.596;9.238;2023-04-09T01:17:08;98873.97;;;9.16;83.60
21824;BME280;11074;48.596;9.238;2023-04-09T01:19:52;98874.03;;;9.28;82.81
21824;BME280;11074;48.596;9.238;2023-04-09T01:25:52;98875.50;;;9.24;82.94
21824;BME280;11074;48.596;9.238;2023-04-09T01:28:59;98875.63;;;9.17;82.91
21824;BME280;11074;48.596;9.238;2023-04-09T01:31:31;98878.03;;;9.19;83.04
21824;BME280;11074;48.596;9.238;2023-04-09T01:34:01;98877.31;;;9.11;82.79
21824;BME280;11074;48.596;9.238;2023-04-09T01:36:29;98881.31;;;9.21;82.82
21824;BME280;11074;48.596;9.238;2023-04-09T01:38:59;98874.47;;;9.25;82.87
21824;BME280;11074;48.596;9.238;2023-04-09T01:41:25;98874.94;;;9.22;82.57
21824;BME280;11074;48.596;9.238;2023-04-09T01:43:52;98882.50;;;9.25;82.24
21824;BME280;11074;48.596;9.238;2023-04-09T01:46:20;98886.56;;;9.27;83.04
21824;BME280;11074;48.596;9.238;2023-04-09T01:48:48;98881.47;;;9.26;81.62
21824;BME280;11074;48.596;9.238;2023-04-09T01:51:14;98876.06;;;9.14;83.03
21824;BME280;11074;48.596;9.238;2023-04-09T01:53:41;98874.06;;;9.09;82.69
21824;BME280;11074;48.596;9.238;2023-04-09T01:56:08;98879.28;;;9.04;82.79
21824;BME280;11074;48.596;9.238;2023-04-09T01:58:34;98878.00;;;9.07;83.39
21824;BME280;11074;48.596;9.238;2023-04-09T02:01:23;98880.22;;;9.10;82.95
21824;BME280;11074;48.596;9.238;2023-04-09T02:03:57;98881.13;;;9.04;83.50
21824;BME280;11074;48.596;9.238;2023-04-09T02:06:37;98882.53;;;9.06;82.66
21824;BME280;11074;48.596;9.238;2023-04-09T02:09:08;98882.16;;;9.03;82.56
21824;BME280;11074;48.596;9.238;2023-04-09T02:11:38;98878.81;;;9.07;82.76
21824;BME280;11074;48.596;9.238;2023-04-09T02:14:06;98884.22;;;9.01;82.52
21824;BME280;11074;48.596;9.238;2023-04-09T02:16:35;98886.22;;;9.05;83.33
21824;BME280;11074;48.596;9.238;2023-04-09T02:19:02;98883.78;;;9.04;82.40
21824;BME280;11074;48.596;9.238;2023-04-09T02:21:28;98886.38;;;8.92;83.21
21824;BME280;11074;48.596;9.238;2023-04-09T02:23:55;98881.72;;;8.88;83.04
21824;BME280;11074;48.596;9.238;2023-04-09T02:26:21;98876.16;;;8.89;83.37
21824;BME280;11074;48.596;9.238;2023-04-09T02:28:47;98863.88;;;8.88;83.31
21824;BME280;11074;48.596;9.238;2023-04-09T02:31:13;98872.19;;;8.80;83.85
21824;BME280;11074;48.596;9.238;2023-04-09T02:33:39;98864.31;;;8.85;83.74
21824;BME280;11074;48.596;9.238;2023-04-09T02:36:05;98871.50;;;8.85;83.88
21824;BME280;11074;48.596;9.238;2023-04-09T02:38:31;98878.09;;;8.82;84.34
21824;BME280;11074;48.596;9.238;2023-04-09T02:40:57;98868.03;;;8.84;83.85
21824;BME280;11074;48.596;9.238;2023-04-09T02:43:23;98870.47;;;8.86;83.59
21824;BME280;11074;48.596;9.238;2023-04-09T02:45:49;98876.47;;;8.81;84.14
21824;BME280;11074;48.596;9.238;2023-04-09T02:48:14;98876.75;;;8.73;84.76
21824;BME280;11074;48.596;9.238;2023-04-09T02:50:40;98874.31;;;8.72;84.87
21824;BME280;11074;48.596;9.238;2023-04-09T02:53:06;98882.03;;;8.80;84.29
21824;BME280;11074;48.596;9.238;2023-04-09T02:55:31;98873.72;;;8.88;84.24
21824;BME280;11074;48.596;9.238;2023-04-09T02:57:57;98871.19;;;8.93;84.13
21824;BME280;11074;48.596;9.238;2023-04-09T03:00:23;98871.13;;;8.99;83.33
21824;BME280;11074;48.596;9.238;2023-04-09T03:02:48;98863.59;;;8.96;82.78
21824;BME280;11074;48.596;9.238;2023-04-09T03:05:14;98864.09;;;8.87;83.00
21824;BME280;11074;48.596;9.238;2023-04-09T03:07:40;98865.06;;;8.92;83.11
21824;BME280;11074;48.596;9.238;2023-04-09T03:10:06;98864.22;;;8.92;82.96
21824;BME280;11074;48.596;9.238;2023-04-09T03:12:31;98866.16;;;8.85;83.62
21824;BME280;11074;48.596;9.238;2023-04-09T03:14:57;98855.94;;;8.82;83.78
21824;BME280;11074;48.596;9.238;2023-04-09T03:17:23;98857.91;;;8.75;83.75
21824;BME280;11074;48.596;9.238;2023-04-09T03:19:52;98863.22;;;8.75;84.11
21824;BME280;11074;48.596;9.238;2023-04-09T03:22:18;98863.09;;;8.70;83.97
21824;BME280;11074;48.596;9.238;2023-04-09T03:24:43;98862.63;;;8.73;83.99
21824;BME280;11074;48.596;9.238;2023-04-09T03:27:09;98867.66;;;8.63;84.68
21824;BME280;11074;48.596;9.238;2023-04-09T03:29:35;98862.56;;;8.61;84.40
21824;BME280;11074;48.596;9.238;2023-04-09T03:32:00;98858.19;;;8.67;84.13
21824;BME280;11074;48.596;9.238;2023-04-09T03:34:26;98859.50;;;8.76;84.10
21824;BME280;11074;48.596;9.238;2023-04-09T03:36:52;98861.44;;;8.69;83.80
21824;BME280;11074;48.596;9.238;2023-04-09T03:39:17;98856.56;;;8.66;83.76
21824;BME280;11074;48.596;9.238;2023-04-09T03:41:43;98861.97;;;8.59;84.36
21824;BME280;11074;48.596;9.238;2023-04-09T03:44:09;98859.75;;;8.56;84.88
21824;BME280;11074;48.596;9.238;2023-04-09T03:46:35;98864.25;;;8.56;84.75
21824;BME280;11074;48.596;9.238;2023-04-09T03:49:00;98861.44;;;8.50;84.96
21824;BME280;11074;48.596;9.238;2023-04-09T03:51:26;98852.88;;;8.48;85.20
21824;BME280;11074;48.596;9.238;2023-04-09T03:53:52;98857.56;;;8.46;85.35
21824;BME280;11074;48.596;9.238;2023-04-09T03:56:17;98863.66;;;8.53;84.89
21824;BME280;11074;48.596;9.238;2023-04-09T03:58:43;98851.06;;;8.61;85.16
21824;BME280;11074;48.596;9.238;2023-04-09T04:01:08;98852.84;;;8.67;84.60
21824;BME280;11074;48.596;9.238;2023-04-09T04:03:34;98849.31;;;8.73;84.66
21824;BME280;11074;48.596;9.238;2023-04-09T04:06:02;98845.53;;;8.62;85.06
21824;BME280;11074;48.596;9.238;2023-04-09T04:08:28;98849.81;;;8.63;84.69
21824;BME280;11074;48.596;9.238;2023-04-09T04:10:54;98845.44;;;8.69;84.50
21824;BME280;11074;48.596;9.238;2023-04-09T04:13:20;98842.25;;;8.60;85.39
21824;BME280;11074;48.596;9.238;2023-04-09T04:15:46;98852.72;;;8.62;84.99
21824;BME280;11074;48.596;9.238;2023-04-09T04:18:15;98860.09;;;8.60;85.91
21824;BME280;11074;48.596;9.238;2023-04-09T04:20:40;98858.06;;;8.62;85.04
21824;BME280;11074;48.596;9.238;2023-04-09T04:23:06;98852.84;;;8.67;84.98
21824;BME280;11074;48.596;9.238;2023-04-09T04:25:32;98856.41;;;8.61;84.92
21824;BME280;11074;48.596;9.238;2023-04-09T04:27:57;98861.16;;;8.59;86.00
21824;BME280;11074;48.596;9.238;2023-04-09T04:30:23;98863.53;;;8.67;85.24
21824;BME280;11074;48.596;9.238;2023-04-09T04:32:49;98865.00;;;8.63;84.81
21824;BME280;11074;48.596;9.238;2023-04-09T04:35:15;98862.69;;;8.48;85.80
21824;BME280;11074;48.596;9.238;2023-04-09T04:37:41;98867.34;;;8.52;85.13
21824;BME280;11074;48.596;9.238;2023-04-09T04:40:07;98869.59;;;8.56;84.99
21824;BME280;11074;48.596;9.238;2023-04-09T04:42:34;98867.59;;;8.51;85.57
21824;BME280;11074;48.596;9.238;2023-04-09T04:45:00;98873.28;;;8.54;85.34
21824;BME280;11074;48.596;9.238;2023-04-09T04:47:26;98880.84;;;8.58;84.79
21824;BME280;11074;48.596;9.238;2023-04-09T04:49:52;98877.34;;;8.57;84.91
21824;BME280;11074;48.596;9.238;2023-04-09T04:52:17;98883.28;;;8.59;85.06
21824;BME280;11074;48.596;9.238;2023-04-09T04:54:43;98881.56;;;8.46;85.90
21824;BME280;11074;48.596;9.238;2023-04-09T04:57:09;98885.47;;;8.44;85.55
21824;BME280;11074;48.596;9.238;2023-04-09T04:59:39;98879.13;;;8.45;85.53
21824;BME280;11074;48.596;9.238;2023-04-09T05:02:08;98875.72;;;8.56;85.26
21824;BME280;11074;48.596;9.238;2023-04-09T05:04:34;98883.50;;;8.58;84.65
21824;BME280;11074;48.596;9.238;2023-04-09T05:07:00;98881.88;;;8.57;84.99
21824;BME280;11074;48.596;9.238;2023-04-09T05:09:26;98883.94;;;8.54;84.79
21824;BME280;11074;48.596;9.238;2023-04-09T05:11:51;98881.22;;;8.61;84.85
21824;BME280;11074;48.596;9.238;2023-04-09T05:14:17;98877.28;;;8.64;84.73
21824;BME280;11074;48.596;9.238;2023-04-09T05:16:45;98876.47;;;8.63;84.44
21824;BME280;11074;48.596;9.238;2023-04-09T05:19:11;98872.78;;;8.64;83.84
21824;BME280;11074;48.596;9.238;2023-04-09T05:21:36;98876.03;;;8.66;84.22
21824;BME280;11074;48.596;9.238;2023-04-09T05:24:02;98872.47;;;8.72;84.87
21824;BME280;11074;48.596;9.238;2023-04-09T05:26:28;98872.25;;;8.74;83.98
21824;BME280;11074;48.596;9.238;2023-04-09T05:28:54;98874.91;;;8.74;84.61
21824;BME280;11074;48.596;9.238;2023-04-09T05:31:20;98875.28;;;8.77;84.41
21824;BME280;11074;48.596;9.238;2023-04-09T05:33:45;98874.63;;;8.82;83.93
21824;BME280;11074;48.596;9.238;2023-04-09T05:36:15;98869.28;;;8.82;83.68
21824;BME280;11074;48.596;9.238;2023-04-09T05:38:43;98874.75;;;8.87;83.91
21824;BME280;11074;48.596;9.238;2023-04-09T05:41:09;98883.72;;;8.92;84.92
21824;BME280;11074;48.596;9.238;2023-04-09T05:43:34;98870.75;;;8.96;83.89
21824;BME280;11074;48.596;9.238;2023-04-09T05:46:00;98873.31;;;9.02;84.00
21824;BME280;11074;48.596;9.238;2023-04-09T05:48:26;98875.94;;;9.09;82.92
21824;BME280;11074;48.596;9.238;2023-04-09T05:50:52;98876.06;;;9.14;82.82
21824;BME280;11074;48.596;9.238;2023-04-09T05:53:19;98878.66;;;9.21;82.57
21824;BME280;11074;48.596;9.238;2023-04-09T05:55:45;98880.63;;;9.25;82.55
21824;BME280;11074;48.596;9.238;2023-04-09T05:58:12;98876.25;;;9.31;82.51
21824;BME280;11074;48.596;9.238;2023-04-09T06:00:37;98879.75;;;9.31;81.41
21824;BME280;11074;48.596;9.238;2023-04-09T06:03:04;98876.38;;;9.36;81.29
21824;BME280;11074;48.596;9.238;2023-04-09T06:05:30;98880.91;;;9.35;81.15
21824;BME280;11074;48.596;9.238;2023-04-09T06:07:55;98893.22;;;9.36;81.10
21824;BME280;11074;48.596;9.238;2023-04-09T06:15:32;98892.84;;;9.33;81.30
21824;BME280;11074;48.596;9.238;2023-04-09T06:17:58;98886.00;;;9.37;81.83
21824;BME280;11074;48.596;9.238;2023-04-09T06:20:23;98890.41;;;9.31;81.72
21824;BME280;11074;48.596;9.238;2023-04-09T06:22:49;98893.66;;;9.33;81.16
21824;BME280;11074;48.596;9.238;2023-04-09T06:25:15;98884.03;;;9.32;81.61
21824;BME280;11074;48.596;9.238;2023-04-09T06:27:41;98886.34;;;9.29;82.43
21824;BME280;11074;48.596;9.238;2023-04-09T06:30:08;98887.38;;;9.28;81.71
21824;BME280;11074;48.596;9.238;2023-04-09T06:32:33;98882.63;;;9.30;81.81
21824;BME280;11074;48.596;9.238;2023-04-09T06:34:59;98884.03;;;9.32;82.20
21824;BME280;11074;48.596;9.238;2023-04-09T06:37:25;98883.34;;;9.37;81.82
21824;BME280;11074;48.596;9.238;2023-04-09T06:39:51;98888.00;;;9.41;81.02
21824;BME280;11074;48.596;9.238;2023-04-09T06:42:16;98887.69;;;9.49;80.68
21824;BME280;11074;48.596;9.238;2023-04-09T06:44:42;98889.16;;;9.45;80.34
21824;BME280;11074;48.596;9.238;2023-04-09T06:47:08;98898.81;;;9.46;80.29
21824;BME280;11074;48.596;9.238;2023-04-09T06:49:33;98894.75;;;9.44;80.54
21824;BME280;11074;48.596;9.238;2023-04-09T06:51:59;98895.47;;;9.51;80.88
21824;BME280;11074;48.596;9.238;2023-04-09T06:54:25;98898.25;;;9.56;81.13
21824;BME280;11074;48.596;9.238;2023-04-09T06:56:51;98897.09;;;9.52;80.41
21824;BME280;11074;48.596;9.238;2023-04-09T06:59:17;98897.00;;;9.58;80.33
21824;BME280;11074;48.596;9.238;2023-04-09T07:01:42;98894.94;;;9.60;80.02
21824;BME280;11074;48.596;9.238;2023-04-09T07:04:08;98895.28;;;9.64;80.46
21824;BME280;11074;48.596;9.238;2023-04-09T07:06:33;98899.56;;;9.65;79.14
21824;BME280;11074;48.596;9.238;2023-04-09T07:08:59;98895.28;;;9.64;79.91
21824;BME280;11074;48.596;9.238;2023-04-09T07:11:25;98895.63;;;9.67;79.27
21824;BME280;11074;48.596;9.238;2023-04-09T07:13:51;98897.63;;;9.72;78.59
21824;BME280;11074;48.596;9.238;2023-04-09T07:16:16;98890.09;;;9.81;77.80
21824;BME280;11074;48.596;9.238;2023-04-09T07:18:42;98890.22;;;9.86;78.23
21824;BME280;11074;48.596;9.238;2023-04-09T07:21:08;98892.91;;;9.97;78.58
21824;BME280;11074;48.596;9.238;2023-04-09T07:26:05;98895.47;;;10.04;76.10
21824;BME280;11074;48.596;9.238;2023-04-09T07:28:31;98901.19;;;10.07;76.94
21824;BME280;11074;48.596;9.238;2023-04-09T07:30:59;98903.03;;;10.07;74.34
21824;BME280;11074;48.596;9.238;2023-04-09T07:33:25;98895.38;;;10.10;75.83
21824;BME280;11074;48.596;9.238;2023-04-09T07:35:51;98906.06;;;10.10;75.59
21824;BME280;11074;48.596;9.238;2023-04-09T07:38:17;98902.13;;;10.13;75.15
21824;BME280;11074;48.596;9.238;2023-04-09T07:40:42;98896.09;;;10.17;74.42
21824;BME280;11074;48.596;9.238;2023-04-09T07:43:08;98904.22;;;10.22;73.98
21824;BME280;11074;48.596;9.238;2023-04-09T07:45:34;98904.00;;;10.24;74.04
21824;BME280;11074;48.596;9.238;2023-04-09T07:48:00;98907.72;;;10.23;73.87
21824;BME280;11074;48.596;9.238;2023-04-09T07:50:25;98914.00;;;10.28;73.11
21824;BME280;11074;48.596;9.238;2023-04-09T07:52:51;98910.41;;;10.23;72.55
21824;BME280;11074;48.596;9.238;2023-04-09T07:55:17;98919.72;;;10.32;72.30
21824;BME280;11074;48.596;9.238;2023-04-09T07:57:43;98916.69;;;10.40;71.85
21824;BME280;11074;48.596;9.238;2023-04-09T08:00:10;98913.56;;;10.43;72.59
21824;BME280;11074;48.596;9.238;2023-04-09T08:02:36;98912.03;;;10.47;72.42
21824;BME280;11074;48.596;9.238;2023-04-09T08:05:02;98919.03;;;10.48;71.82
21824;BME280;11074;48.596;9.238;2023-04-09T08:07:28;98911.78;;;10.60;70.98
21824;BME280;11074;48.596;9.238;2023-04-09T08:09:53;98917.59;;;10.57;69.09
21824;BME280;11074;48.596;9.238;2023-04-09T08:12:19;98910.28;;;10.53;69.07
21824;BME280;11074;48.596;9.238;2023-04-09T08:14:45;98916.56;;;10.47;68.94
21824;BME280;11074;48.596;9.238;2023-04-09T08:17:11;98907.16;;;10.44;68.31
21824;BME280;11074;48.596;9.238;2023-04-09T08:19:36;98915.88;;;10.40;69.56
21824;BME280;11074;48.596;9.238;2023-04-09T08:22:02;98914.13;;;10.45;69.61
21824;BME280;11074;48.596;9.238;2023-04-09T08:24:28;98913.19;;;10.51;68.28
21824;BME280;11074;48.596;9.238;2023-04-09T08:26:53;98907.97;;;10.56;68.10
21824;BME280;11074;48.596;9.238;2023-04-09T08:29:19;98910.50;;;10.63;66.45
21824;BME280;11074;48.596;9.238;2023-04-09T08:31:45;98921.09;;;10.69;67.22
21824;BME280;11074;48.596;9.238;2023-04-09T08:34:11;98915.50;;;10.71;65.01
21824;BME280;11074;48.596;9.238;2023-04-09T08:36:37;98911.44;;;10.80;65.14
21824;BME280;11074;48.596;9.238;2023-04-09T08:39:03;98910.59;;;10.91;65.39
21824;BME280;11074;48.596;9.238;2023-04-09T08:41:29;98912.19;;;11.04;63.54
21824;BME280;11074;48.596;9.238;2023-04-09T08:43:56;98922.16;;;11.20;64.37
21824;BME280;11074;48.596;9.238;2023-04-09T08:46:23;98914.19;;;11.36;63.38
21824;BME280;11074;48.596;9.238;2023-04-09T08:48:50;98914.13;;;11.48;62.48
21824;BME280;11074;48.596;9.238;2023-04-09T08:51:19;98922.13;;;11.60;62.19
21824;BME280;11074;48.596;9.238;2023-04-09T08:53:48;98923.38;;;11.69;60.43
21824;BME280;11074;48.596;9.238;2023-04-09T08:56:17;98933.50;;;11.78;57.92
21824;BME280;11074;48.596;9.238;2023-04-09T08:58:45;98927.88;;;11.80;56.83
21824;BME280;11074;48.596;9.238;2023-04-09T09:04:02;98930.56;;;11.80;56.68
21824;BME280;11074;48.596;9.238;2023-04-09T09:06:37;98937.56;;;11.81;56.07
21824;BME280;11074;48.596;9.238;2023-04-09T09:09:13;98939.97;;;11.82;55.49
21824;BME280;11074;48.596;9.238;2023-04-09T09:11:46;98932.75;;;11.83;56.30
21824;BME280;11074;48.596;9.238;2023-04-09T09:14:17;98938.59;;;11.80;55.29
21824;BME280;11074;48.596;9.238;2023-04-09T09:21:59;98933.66;;;11.88;54.99
21824;BME280;11074;48.596;9.238;2023-04-09T09:24:26;98932.13;;;11.92;54.62
21824;BME280;11074;48.596;9.238;2023-04-09T09:26:53;98931.31;;;11.92;54.45
21824;BME280;11074;48.596;9.238;2023-04-09T09:29:19;98937.41;;;12.04;54.31
21824;BME280;11074;48.596;9.238;2023-04-09T09:31:53;98935.72;;;12.14;54.18
21824;BME280;11074;48.596;9.238;2023-04-09T09:34:22;98941.34;;;12.13;53.96
21824;BME280;11074;48.596;9.238;2023-04-09T09:36:48;98943.84;;;12.20;53.84
21824;BME280;11074;48.596;9.238;2023-04-09T09:39:15;98937.78;;;12.24;54.63
21824;BME280;11074;48.596;9.238;2023-04-09T09:41:43;98954.50;;;12.31;53.49
21824;BME280;11074;48.596;9.238;2023-04-09T09:44:12;98949.38;;;12.30;53.53
21824;BME280;11074;48.596;9.238;2023-04-09T09:46:54;98946.78;;;12.35;52.65
21824;BME280;11074;48.596;9.238;2023-04-09T09:49:20;98949.22;;;12.36;53.90
21824;BME280;11074;48.596;9.238;2023-04-09T09:51:46;98937.94;;;12.34;52.99
21824;BME280;11074;48.596;9.238;2023-04-09T09:54:17;98940.19;;;12.42;52.74
21824;BME280;11074;48.596;9.238;2023-04-09T09:56:51;98934.34;;;12.45;52.55
21824;BME280;11074;48.596;9.238;2023-04-09T09:59:22;98937.75;;;12.57;52.20
21824;BME280;11074;48.596;9.238;2023-04-09T10:01:59;98941.31;;;12.63;51.50
21824;BME280;11074;48.596;9.238;2023-04-09T10:04:32;98939.75;;;12.67;52.82
21824;BME280;11074;48.596;9.238;2023-04-09T10:07:05;98939.38;;;12.58;51.01
21824;BME280;11074;48.596;9.238;2023-04-09T10:09:34;98945.69;;;12.69;51.42
21824;BME280;11074;48.596;9.238;2023-04-09T10:12:05;98946.25;;;12.71;51.52
21824;BME280;11074;48.596;9.238;2023-04-09T10:14:33;98940.63;;;12.72;52.19
21824;BME280;11074;48.596;9.238;2023-04-09T10:17:00;98937.47;;;12.75;50.92
21824;BME280;11074;48.596;9.238;2023-04-09T10:19:29;98929.25;;;12.82;50.84
21824;BME280;11074;48.596;9.238;2023-04-09T10:22:04;98925.91;;;12.75;47.81
21824;BME280;11074;48.596;9.238;2023-04-09T10:24:33;98914.28;;;12.86;48.69
21824;BME280;11074;48.596;9.238;2023-04-09T10:27:15;98928.06;;;12.95;47.55
21824;BME280;11074;48.596;9.238;2023-04-09T10:29:46;98924.34;;;12.96;45.33
21824;BME280;11074;48.596;9.238;2023-04-09T10:32:22;98922.22;;;12.98;47.50
21824;BME280;11074;48.596;9.238;2023-04-09T10:34:55;98922.53;;;13.01;48.72
21824;BME280;11074;48.596;9.238;2023-04-09T10:37:24;98922.28;;;13.03;47.17
21824;BME280;11074;48.596;9.238;2023-04-09T10:39:52;98923.41;;;13.07;48.47
21824;BME280;11074;48.596;9.238;2023-04-09T10:42:29;98922.69;;;13.11;48.06
21824;BME280;11074;48.596;9.238;2023-04-09T10:45:19;98926.97;;;13.12;46.35
21824;BME280;11074;48.596;9.238;2023-04-09T10:47:49;98920.56;;;13.13;47.56
21824;BME280;11074;48.596;9.238;2023-04-09T10:50:22;98924.31;;;13.12;48.11
21824;BME280;11074;48.596;9.238;2023-04-09T10:52:54;98923.44;;;13.28;48.22
21824;BME280;11074;48.596;9.238;2023-04-09T10:55:36;98919.56;;;13.41;48.81
21824;BME280;11074;48.596;9.238;2023-04-09T10:58:07;98920.78;;;13.33;48.80
21824;BME280;11074;48.596;9.238;2023-04-09T11:00:39;98919.44;;;13.31;47.53
21824;BME280;11074;48.596;9.238;2023-04-09T11:03:17;98924.31;;;13.34;47.66
21824;BME280;11074;48.596;9.238;2023-04-09T11:06:06;98922.44;;;13.34;48.12
21824;BME280;11074;48.596;9.238;2023-04-09T11:08:36;98913.16;;;13.47;48.50
21824;BME280;11074;48.596;9.238;2023-04-09T11:11:03;98904.94;;;13.54;48.08
21824;BME280;11074;48.596;9.238;2023-04-09T11:13:31;98911.97;;;13.60;48.89
21824;BME280;11074;48.596;9.238;2023-04-09T11:15:58;98912.81;;;13.65;48.37
21824;BME280;11074;48.596;9.238;2023-04-09T11:18:27;98910.94;;;13.66;49.20
21824;BME280;11074;48.596;9.238;2023-04-09T11:21:02;98907.81;;;13.74;47.62
21824;BME280;11074;48.596;9.238;2023-04-09T11:23:30;98905.38;;;13.72;47.52
21824;BME280;11074;48.596;9.238;2023-04-09T11:25:56;98891.50;;;13.80;47.55
21824;BME280;11074;48.596;9.238;2023-04-09T11:28:23;98896.47;;;13.98;47.28
21824;BME280;11074;48.596;9.238;2023-04-09T11:30:52;98891.31;;;13.92;47.15
21824;BME280;11074;48.596;9.238;2023-04-09T11:33:18;98897.53;;;13.97;47.17
21824;BME280;11074;48.596;9.238;2023-04-09T11:35:44;98893.78;;;13.98;46.16
21824;BME280;11074;48.596;9.238;2023-04-09T11:38:11;98884.09;;;13.97;47.62
21824;BME280;11074;48.596;9.238;2023-04-09T11:40:41;98885.69;;;13.93;47.58
21824;BME280;11074;48.596;9.238;2023-04-09T11:43:16;98882.66;;;13.85;46.84
21824;BME280;11074;48.596;9.238;2023-04-09T11:45:42;98882.41;;;13.86;46.41
21824;BME280;11074;48.596;9.238;2023-04-09T11:48:10;98878.25;;;13.74;45.45
21824;BME280;11074;48.596;9.238;2023-04-09T11:50:36;98882.56;;;13.75;45.87
21824;BME280;11074;48.596;9.238;2023-04-09T11:53:18;98880.97;;;13.79;46.18
21824;BME280;11074;48.596;9.238;2023-04-09T11:55:50;98882.69;;;13.90;46.87
21824;BME280;11074;48.596;9.238;2023-04-09T11:58:16;98879.31;;;14.00;45.76
21824;BME280;11074;48.596;9.238;2023-04-09T12:00:42;98887.09;;;14.33;45.31
21824;BME280;11074;48.596;9.238;2023-04-09T12:03:09;98878.63;;;14.56;45.26
21824;BME280;11074;48.596;9.238;2023-04-09T12:05:36;98864.69;;;14.64;46.29
21824;BME280;11074;48.596;9.238;2023-04-09T12:08:06;98869.03;;;14.65;45.67
21824;BME280;11074;48.596;9.238;2023-04-09T12:10:34;98870.97;;;14.80;45.45
21824;BME280;11074;48.596;9.238;2023-04-09T12:13:10;98867.19;;;14.76;45.47
21824;BME280;11074;48.596;9.238;2023-04-09T12:15:39;98867.16;;;14.71;44.66
21824;BME280;11074;48.596;9.238;2023-04-09T12:18:11;98865.50;;;14.65;45.27
21824;BME280;11074;48.596;9.238;2023-04-09T12:20:43;98867.03;;;14.50;44.45
21824;BME280;11074;48.596;9.238;2023-04-09T12:23:10;98863.75;;;14.38;45.14
21824;BME280;11074;48.596;9.238;2023-04-09T12:25:42;98865.34;;;14.34;45.55
21824;BME280;11074;48.596;9.238;2023-04-09T12:28:11;98869.13;;;14.38;46.51
21824;BME280;11074;48.596;9.238;2023-04-09T12:30:38;98867.75;;;14.36;44.71
21824;BME280;11074;48.596;9.238;2023-04-09T12:33:04;98869.66;;;14.40;44.52
21824;BME280;11074;48.596;9.238;2023-04-09T12:35:30;98869.22;;;14.53;45.13
21824;BME280;11074;48.596;9.238;2023-04-09T12:37:56;98863.13;;;14.68;44.55
21824;BME280;11074;48.596;9.238;2023-04-09T12:40:25;98853.75;;;14.81;44.02
21824;BME280;11074;48.596;9.238;2023-04-09T12:42:50;98847.88;;;14.94;43.15
21824;BME280;11074;48.596;9.238;2023-04-09T12:45:18;98860.53;;;14.93;43.59
21824;BME280;11074;48.596;9.238;2023-04-09T12:47:44;98854.38;;;14.98;43.29
21824;BME280;11074;48.596;9.238;2023-04-09T12:50:12;98855.16;;;14.98;44.15
21824;BME280;11074;48.596;9.238;2023-04-09T12:52:38;98846.84;;;15.05;42.46
21824;BME280;11074;48.596;9.238;2023-04-09T12:55:05;98842.59;;;15.19;44.12
21824;BME280;11074;48.596;9.238;2023-04-09T12:57:31;98840.97;;;15.13;42.76
21824;BME280;11074;48.596;9.238;2023-04-09T12:59:58;98838.28;;;15.18;43.82
21824;BME280;11074;48.596;9.238;2023-04-09T13:02:24;98840.47;;;15.26;43.47
21824;BME280;11074;48.596;9.238;2023-04-09T13:04:50;98830.75;;;15.25;42.59
21824;BME280;11074;48.596;9.238;2023-04-09T13:07:17;98831.56;;;15.21;42.38
21824;BME280;11074;48.596;9.238;2023-04-09T13:09:47;98828.06;;;15.25;42.87
21824;BME280;11074;48.596;9.238;2023-04-09T13:12:15;98828.59;;;15.22;42.44
21824;BME280;11074;48.596;9.238;2023-04-09T13:14:43;98828.63;;;15.32;42.77
21824;BME280;11074;48.596;9.238;2023-04-09T13:17:09;98833.25;;;15.52;42.05
21824;BME280;11074;48.596;9.238;2023-04-09T13:19:35;98825.75;;;15.54;41.60
21824;BME280;11074;48.596;9.238;2023-04-09T13:22:00;98827.34;;;15.60;41.36
21824;BME280;11074;48.596;9.238;2023-04-09T13:24:26;98819.00;;;15.76;41.50
21824;BME280;11074;48.596;9.238;2023-04-09T13:26:52;98815.75;;;16.00;41.73
21824;BME280;11074;48.596;9.238;2023-04-09T13:29:18;98810.91;;;16.07;41.03